Latest Weather Observations for North Head

IDN60901

Issued at 1:02 pm EST Thursday 30 June 2016 (issued every 10 minutes, with the page automatically refreshed every 10 minutes)

About weather observations | Map of Sydney area stations | Latest observations for Sydney area | Other Formats
Station Details ID: 066197 Name: NORTH HEAD Lat: -33.82 Lon: 151.30 Height: 90.0 m
Data from the previous 72 hours. | See also: Recent months for locations in New South Wales
Date/Time
EST
Temp
°C
App
Temp
°C
Dew
Point
°C
Rel
Hum
%
Delta-T
°C
Wind Press
QNH
hPa
Press
MSL
hPa
Rain since
9am
mm
Dir  Spd
km/h
Gust
km/h
Spd
kts
Gust
kts
30/01:00pm - - - - - NNW 20 33 11 18 - - -
30/12:30pm - - - - - NNW 15 26 8 14 - - -
30/12:00pm - - - - - NNW 19 28 10 15 - - -
30/11:30am - - - - - NNW 20 33 11 18 - - -
30/11:00am - - - - - N 15 30 8 16 - - -
30/10:30am - - - - - N 17 24 9 13 - - -
30/10:00am - - - - - N 15 22 8 12 - - -
30/09:30am - - - - - N 11 19 6 10 - - -
30/09:00am - - - - - N 13 19 7 10 - - -
30/08:30am - - - - - NNW 11 17 6 9 - - -
30/08:00am - - - - - NNW 13 17 7 9 - - -
30/07:30am - - - - - NNW 13 17 7 9 - - -
30/07:00am - - - - - NNW 9 15 5 8 - - -
30/06:30am - - - - - NNW 11 17 6 9 - - -
30/06:00am - - - - - NW 9 11 5 6 - - -
30/05:30am - - - - - NW 11 15 6 8 - - -
30/05:00am - - - - - WNW 11 13 6 7 - - -
30/04:30am - - - - - NW 11 17 6 9 - - -
30/04:00am - - - - - NW 9 13 5 7 - - -
30/03:30am - - - - - NW 9 13 5 7 - - -
30/03:00am - - - - - NW 11 15 6 8 - - -
30/02:30am - - - - - NW 9 13 5 7 - - -
30/02:00am - - - - - NW 9 15 5 8 - - -
30/01:30am - - - - - NNW 9 13 5 7 - - -
30/01:00am - - - - - NNW 9 13 5 7 - - -
30/12:30am - - - - - NW 9 15 5 8 - - -
30/12:00am - - - - - NNW 9 11 5 6 - - -
 
Date/Time
EST
Temp
°C
App
Temp
°C
Dew
Point
°C
Rel
Hum
%
Delta-T
°C
Wind Press
QNH
hPa
Press
MSL
hPa
Rain since
9am
mm
Dir  Spd
km/h
Gust
km/h
Spd
kts
Gust
kts
29/11:30pm - - - - - NNW 9 11 5 6 - - -
29/11:00pm - - - - - NNW 7 9 4 5 - - -
29/10:30pm - - - - - NNW 7 9 4 5 - - -
29/10:00pm - - - - - NNW 7 9 4 5 - - -
29/09:30pm - - - - - N 9 11 5 6 - - -
29/09:00pm - - - - - N 9 11 5 6 - - -
29/08:30pm - - - - - N 7 9 4 5 - - -
29/08:00pm - - - - - N 7 7 4 4 - - -
29/07:30pm - - - - - N 6 6 3 3 - - -
29/07:00pm - - - - - N 2 4 1 2 - - -
29/06:30pm - - - - - NNE 4 4 2 2 - - -
29/06:00pm - - - - - ENE 2 2 1 1 - - -
29/05:30pm - - - - - ENE 2 4 1 2 - - -
29/05:00pm - - - - - ESE 4 6 2 3 - - -
29/04:30pm - - - - - SE 4 6 2 3 - - -
29/04:00pm - - - - - SE 2 4 1 2 - - -
29/03:30pm - - - - - SE 4 4 2 2 - - -
29/03:00pm - - - - - ESE 2 6 1 3 - - -
29/02:30pm - - - - - SSW 2 6 1 3 - - -
29/02:00pm - - - - - WSW 6 7 3 4 - - -
29/01:30pm - - - - - WSW 6 9 3 5 - - -
29/01:00pm - - - - - WSW 7 9 4 5 - - -
29/12:30pm - - - - - W 7 11 4 6 - - -
29/12:00pm - - - - - W 11 15 6 8 - - -
29/11:30am - - - - - W 11 15 6 8 - - -
29/11:00am - - - - - W 13 19 7 10 - - -
29/10:30am - - - - - W 15 22 8 12 - - -
29/10:00am - - - - - W 17 22 9 12 - - -
29/09:30am - - - - - W 17 24 9 13 - - -
29/09:00am - - - - - W 19 24 10 13 - - -
29/08:30am - - - - - W 19 26 10 14 - - -
29/08:00am - - - - - W 20 26 11 14 - - -
29/07:30am - - - - - W 19 24 10 13 - - -
29/07:00am - - - - - W 20 28 11 15 - - -
29/06:30am - - - - - W 20 24 11 13 - - -
29/06:00am - - - - - WNW 17 24 9 13 - - -
29/05:30am - - - - - WNW 19 24 10 13 - - -
29/05:00am - - - - - W 20 30 11 16 - - -
29/04:30am - - - - - W 19 24 10 13 - - -
29/04:00am - - - - - W 20 28 11 15 - - -
29/03:30am - - - - - W 19 26 10 14 - - -
29/03:00am - - - - - W 19 24 10 13 - - -
29/02:30am - - - - - W 19 24 10 13 - - -
29/02:00am - - - - - W 17 26 9 14 - - -
29/01:30am - - - - - W 17 28 9 15 - - -
29/01:00am - - - - - W 17 24 9 13 - - -
29/12:30am - - - - - W 19 24 10 13 - - -
29/12:00am - - - - - W 17 22 9 12 - - -
 
Date/Time
EST
Temp
°C
App
Temp
°C
Dew
Point
°C
Rel
Hum
%
Delta-T
°C
Wind Press
QNH
hPa
Press
MSL
hPa
Rain since
9am
mm
Dir  Spd
km/h
Gust
km/h
Spd
kts
Gust
kts
28/11:30pm - - - - - W 19 24 10 13 - - -
28/11:00pm - - - - - WNW 15 20 8 11 - - -
28/10:30pm - - - - - W 15 22 8 12 - - -
28/10:00pm - - - - - W 19 28 10 15 - - -
28/09:30pm - - - - - W 19 26 10 14 - - -
28/09:00pm - - - - - W 19 28 10 15 - - -
28/08:30pm - - - - - W 15 22 8 12 - - -
28/08:00pm - - - - - W 13 20 7 11 - - -
28/07:30pm - - - - - W 13 17 7 9 - - -
28/07:00pm - - - - - W 13 17 7 9 - - -
28/06:30pm - - - - - W 11 15 6 8 - - -
28/06:00pm - - - - - W 9 13 5 7 - - -
28/05:30pm - - - - - SSW 11 20 6 11 - - -
28/05:00pm - - - - - S 11 20 6 11 - - -
28/04:30pm - - - - - SSW 9 17 5 9 - - -
28/04:00pm - - - - - SSW 11 20 6 11 - - -
28/03:30pm - - - - - S 13 24 7 13 - - -
28/03:00pm - - - - - SSW 11 22 6 12 - - -
28/02:30pm - - - - - SW 15 22 8 12 - - -
28/02:00pm - - - - - SW 15 26 8 14 - - -
28/01:30pm - - - - - SW 15 26 8 14 - - -
28/01:00pm - - - - - SW 19 30 10 16 - - -
28/12:30pm - - - - - WSW 17 28 9 15 - - -
28/12:00pm - - - - - WSW 19 28 10 15 - - -
28/11:30am - - - - - WSW 22 32 12 17 - - -
28/11:00am - - - - - W 19 32 10 17 - - -
28/10:30am - - - - - W 22 35 12 19 - - -
28/10:00am - - - - - W 24 35 13 19 - - -
28/09:30am - - - - - WSW 20 32 11 17 - - -
28/09:00am - - - - - WSW 24 37 13 20 - - -
28/08:30am - - - - - WSW 26 37 14 20 - - -
28/08:00am - - - - - WSW 26 35 14 19 - - -
28/07:30am - - - - - WSW 22 30 12 16 - - -
28/07:00am - - - - - WSW 24 35 13 19 - - -
28/06:30am - - - - - WSW 28 43 15 23 - - -
28/06:00am - - - - - WSW 26 43 14 23 - - -
28/05:30am - - - - - WSW 28 44 15 24 - - -
28/05:00am - - - - - WSW 28 46 15 25 - - -
28/04:55am - - - - - WSW 28 46 15 25 - - -
28/04:30am - - - - - WSW 24 35 13 19 - - -
28/04:00am - - - - - WSW 24 39 13 21 - - -
28/03:30am - - - - - WSW 24 37 13 20 - - -
28/03:00am - - - - - W 28 44 15 24 - - -
28/02:30am - - - - - WSW 26 43 14 23 - - -
28/02:00am - - - - - W 24 41 13 22 - - -
28/01:30am - - - - - WSW 26 39 14 21 - - -
28/01:00am - - - - - WSW 28 41 15 22 - - -
28/12:30am - - - - - WSW 24 39 13 21 - - -
28/12:00am - - - - - WSW 28 48 15 26 - - -
 
Date/Time
EST
Temp
°C
App
Temp
°C
Dew
Point
°C
Rel
Hum
%
Delta-T
°C
Wind Press
QNH
hPa
Press
MSL
hPa
Rain since
9am
mm
Dir  Spd
km/h
Gust
km/h
Spd
kts
Gust
kts
27/11:53pm - - - - - WSW 28 48 15 26 - - -
27/11:30pm - - - - - WSW 26 44 14 24 - - -
27/11:00pm - - - - - WSW 26 43 14 23 - - -
27/10:30pm - - - - - WSW 28 44 15 24 - - -
27/10:00pm - - - - - WSW 24 35 13 19 - - -
27/09:30pm - - - - - WSW 24 32 13 17 - - -
27/09:00pm - - - - - WSW 22 35 12 19 - - -
27/08:30pm - - - - - WSW 26 39 14 21 - - -
27/08:00pm - - - - - W 24 41 13 22 - - -
27/07:30pm - - - - - W 24 44 13 24 - - -
27/07:00pm - - - - - W 19 32 10 17 - - -
27/06:30pm - - - - - W 19 26 10 14 - - -
27/06:00pm - - - - - WSW 20 28 11 15 - - -
27/05:30pm - - - - - W 19 24 10 13 - - -
27/05:00pm - - - - - WSW 19 28 10 15 - - -
27/04:30pm - - - - - WSW 19 30 10 16 - - -
27/04:00pm - - - - - WSW 17 28 9 15 - - -
27/03:30pm - - - - - WSW 13 20 7 11 - - -
27/03:00pm - - - - - WSW 19 32 10 17 - - -
27/02:30pm - - - - - W 15 22 8 12 - - -
27/02:00pm - - - - - WSW 15 22 8 12 - - -
27/01:30pm - - - - - WSW 17 24 9 13 - - -

Latest Capital City Observations: Canberra | Sydney | Melbourne | Brisbane | Adelaide | Perth | Hobart | Darwin

Other Formats:

Comma delimited format used in spreadsheet applications
http://www.bom.gov.au/fwo/IDN60901/IDN60901.95768.axf

JavaScript Object Notation format (JSON) in row-major order
http://www.bom.gov.au/fwo/IDN60901/IDN60901.95768.json